Time;durP1;ratioP1;P1;durP2;ratioP2;P2;SDS_P1;SDS_P2;PMS_P1;PMS_P2;Temp;Humidity;BMP_temperature;BMP_pressure;BME280_temperature;BME280_humidity;BME280_pressure;Samples;Min_cycle;Max_cycle;Signal;HPM_P1;HPM_P2
2021/04/23 00:02:17;;;;;;;8.98;8.07;;;10.00;76.30;;;;;;5094693;28;20105;-81
2021/04/23 00:04:43;;;;;;;8.57;7.53;;;10.00;76.30;;;;;;5094586;28;20077;-80
2021/04/23 00:07:09;;;;;;;10.68;8.60;;;10.00;76.40;;;;;;5093694;28;20016;-79
2021/04/23 00:09:36;;;;;;;9.75;8.73;;;10.00;76.60;;;;;;5093734;28;20028;-80
2021/04/23 00:12:13;;;;;;;10.30;8.82;;;9.90;76.60;;;;;;5093887;28;20021;-79
2021/04/23 00:14:43;;;;;;;11.45;9.95;;;9.90;76.80;;;;;;5075638;28;20124;-81
2021/04/23 00:17:10;;;;;;;13.52;10.10;;;9.90;77.00;;;;;;5094008;28;20445;-81
2021/04/23 00:19:40;;;;;;;14.77;10.17;;;9.90;77.20;;;;;;5093628;28;20052;-81
2021/04/23 00:22:07;;;;;;;14.40;9.73;;;9.80;77.20;;;;;;5094335;28;20287;-80
2021/04/23 00:24:34;;;;;;;14.50;10.52;;;9.80;77.40;;;;;;5094262;28;20480;-80
2021/04/23 00:27:01;;;;;;;12.93;10.27;;;9.70;77.50;;;;;;5094032;28;20035;-79
2021/04/23 00:29:27;;;;;;;15.50;11.80;;;9.70;77.70;;;;;;5094030;28;20024;-80
2021/04/23 00:34:38;;;;;;;15.95;10.38;;;9.70;78.10;;;;;;5093733;28;20070;-80
2021/04/23 00:37:04;;;;;;;13.32;11.68;;;9.60;78.20;;;;;;5093631;28;20016;-80
2021/04/23 00:39:31;;;;;;;14.55;11.20;;;9.60;78.20;;;;;;5093296;28;20393;-81
2021/04/23 00:41:57;;;;;;;20.92;12.13;;;9.60;78.30;;;;;;5065650;28;20031;-81
2021/04/23 00:44:29;;;;;;;17.83;10.70;;;9.60;78.40;;;;;;5089495;28;20065;-82
2021/04/23 00:46:54;;;;;;;19.48;10.88;;;9.50;78.60;;;;;;5094220;28;20490;-81
2021/04/23 00:49:20;;;;;;;15.32;11.30;;;9.50;78.70;;;;;;5093542;28;20089;-78
2021/04/23 00:52:05;;;;;;;11.70;9.15;;;9.50;78.70;;;;;;5094008;28;20016;-79
2021/04/23 00:54:35;;;;;;;9.77;8.77;;;9.50;78.80;;;;;;5093016;28;20016;-80
2021/04/23 00:57:01;;;;;;;12.88;10.35;;;9.50;79.00;;;;;;5093293;28;20381;-81
2021/04/23 00:59:27;;;;;;;10.95;9.52;;;9.50;79.10;;;;;;5092947;28;20032;-80
2021/04/23 01:02:01;;;;;;;12.05;10.80;;;9.50;79.20;;;;;;5093181;28;20024;-80
2021/04/23 01:04:30;;;;;;;12.82;8.95;;;9.50;79.20;;;;;;5093025;28;20020;-80
2021/04/23 01:06:56;;;;;;;12.23;9.25;;;9.50;79.30;;;;;;5093151;28;20036;-80
2021/04/23 01:09:26;;;;;;;12.27;8.40;;;9.60;79.20;;;;;;5092944;28;20095;-80
2021/04/23 01:11:53;;;;;;;10.40;9.15;;;9.50;79.20;;;;;;5092864;28;20449;-80
2021/04/23 01:14:19;;;;;;;11.32;9.15;;;9.60;79.30;;;;;;5092956;28;20034;-81
2021/04/23 01:16:46;;;;;;;9.50;8.60;;;9.50;79.30;;;;;;5092883;28;20043;-80
2021/04/23 01:19:18;;;;;;;10.68;9.57;;;9.50;79.40;;;;;;5092333;28;20040;-82
2021/04/23 01:21:44;;;;;;;12.02;8.57;;;9.50;79.50;;;;;;5091435;28;20023;-80
2021/04/23 01:24:14;;;;;;;10.70;8.98;;;9.50;79.60;;;;;;5092358;28;20736;-80
2021/04/23 01:26:44;;;;;;;9.98;8.98;;;9.60;79.60;;;;;;5092725;28;20020;-80
2021/04/23 01:29:12;;;;;;;9.40;8.48;;;9.60;79.60;;;;;;5092661;28;20027;-80
2021/04/23 01:31:41;;;;;;;11.23;8.73;;;9.60;79.50;;;;;;5092855;28;20028;-80
2021/04/23 01:34:25;;;;;;;10.55;8.07;;;9.60;79.40;;;;;;5077208;28;20024;-82
2021/04/23 01:36:53;;;;;;;9.50;8.60;;;9.70;79.30;;;;;;5096951;28;20111;-82
2021/04/23 01:39:24;;;;;;;;;;;9.70;79.30;;;;;;5097866;28;20061;-81
2021/04/23 01:41:52;;;;;;;11.23;8.85;;;9.70;79.00;;;;;;5107548;28;19912;-81
2021/04/23 01:44:19;;;;;;;10.85;9.27;;;9.60;79.50;;;;;;5116265;28;20023;-82
2021/04/23 01:46:45;;;;;;;11.18;10.07;;;9.60;79.60;;;;;;5109229;28;20017;-82
2021/04/23 01:49:15;;;;;;;10.38;9.38;;;9.60;79.80;;;;;;5086760;28;20027;-82
2021/04/23 01:51:48;;;;;;;11.75;9.50;;;9.60;80.00;;;;;;5103521;28;20378;-83
2021/04/23 01:54:15;;;;;;;11.45;10.25;;;9.50;80.00;;;;;;5100359;28;20064;-82
2021/04/23 01:56:42;;;;;;;14.55;11.05;;;9.50;80.10;;;;;;5104648;28;20045;-82
2021/04/23 01:59:09;;;;;;;15.32;12.40;;;9.50;80.20;;;;;;5092721;28;20131;-82
2021/04/23 02:01:36;;;;;;;18.83;11.85;;;9.40;80.30;;;;;;5075025;28;20027;-83
2021/04/23 02:04:05;;;;;;;15.93;10.98;;;9.40;80.60;;;;;;5075202;28;20385;-83
2021/04/23 02:06:31;;;;;;;13.95;12.52;;;9.30;80.80;;;;;;5094277;28;20024;-82
2021/04/23 02:08:57;;;;;;;13.65;11.77;;;9.40;80.90;;;;;;5088946;28;20039;-81
2021/04/23 02:11:24;;;;;;;13.52;12.15;;;9.40;81.00;;;;;;5109531;28;20061;-81
2021/04/23 02:13:51;;;;;;;16.05;11.90;;;9.30;80.90;;;;;;5093560;28;20024;-82
2021/04/23 02:16:18;;;;;;;14.20;12.80;;;9.40;81.10;;;;;;5110532;28;20020;-82
2021/04/23 02:18:46;;;;;;;19.95;12.75;;;9.40;81.10;;;;;;5105219;28;20020;-82
2021/04/23 02:21:11;;;;;;;;;;;9.40;81.20;;;;;;5092805;28;20024;-81
2021/04/23 02:23:40;;;;;;;15.98;11.75;;;9.40;80.70;;;;;;5097425;28;19904;-82
2021/04/23 02:26:06;;;;;;;19.00;13.05;;;9.30;81.40;;;;;;5097365;28;20027;-82
2021/04/23 02:28:32;;;;;;;15.40;12.63;;;9.30;81.50;;;;;;5098764;28;20027;-84
2021/04/23 02:31:05;;;;;;;15.55;10.45;;;9.40;81.60;;;;;;5079196;28;20031;-82
2021/04/23 02:33:32;;;;;;;14.18;11.32;;;9.40;81.60;;;;;;5096243;28;20138;-82
2021/04/23 02:35:59;;;;;;;12.70;11.32;;;9.40;81.50;;;;;;5105525;28;20047;-84
2021/04/23 02:38:29;;;;;;;13.85;11.80;;;9.40;81.50;;;;;;5100907;28;20099;-81
2021/04/23 02:40:56;;;;;;;12.55;11.07;;;9.50;81.50;;;;;;5104487;28;20047;-82
2021/04/23 02:43:29;;;;;;;15.43;11.57;;;9.40;81.30;;;;;;5116681;28;20022;-83
2021/04/23 02:45:56;;;;;;;13.13;11.75;;;9.50;81.50;;;;;;5103196;28;20035;-84
2021/04/23 02:48:24;;;;;;;13.05;11.38;;;9.50;81.50;;;;;;5085652;28;20381;-82
2021/04/23 02:50:55;;;;;;;14.45;11.95;;;9.40;81.40;;;;;;5107466;28;20053;-81
2021/04/23 02:53:21;;;;;;;15.15;12.35;;;9.40;81.70;;;;;;5102029;28;20019;-82
2021/04/23 02:55:47;;;;;;;14.00;12.23;;;9.40;81.70;;;;;;5097719;28;20046;-82
2021/04/23 02:58:16;;;;;;;22.25;12.70;;;9.30;81.80;;;;;;5097741;28;20445;-81
2021/04/23 03:00:46;;;;;;;15.98;13.60;;;9.40;82.20;;;;;;5079481;28;20024;-83
2021/04/23 03:03:12;;;;;;;15.32;12.52;;;9.40;82.00;;;;;;5096059;28;20016;-83
2021/04/23 03:05:41;;;;;;;15.52;12.27;;;9.50;82.00;;;;;;5097030;28;20032;-83
2021/04/23 03:08:08;;;;;;;16.48;12.38;;;9.50;81.80;;;;;;5108171;28;20048;-84
2021/04/23 03:10:36;;;;;;;17.70;13.87;;;9.60;81.80;;;;;;5096407;28;20031;-82
2021/04/23 03:13:12;;;;;;;13.40;11.73;;;9.60;81.60;;;;;;5111830;28;20268;-83
2021/04/23 03:15:38;;;;;;;19.08;12.85;;;9.60;81.50;;;;;;5096248;28;20080;-82
2021/04/23 03:18:05;;;;;;;18.75;12.38;;;9.70;81.30;;;;;;5095486;28;20024;-84
2021/04/23 03:20:32;;;;;;;14.40;12.90;;;9.80;81.10;;;;;;5095373;28;20051;-82
2021/04/23 03:22:58;;;;;;;17.70;12.68;;;9.80;80.90;;;;;;5094689;28;20473;-83
2021/04/23 03:25:30;;;;;;;14.75;11.38;;;9.80;80.70;;;;;;5095410;28;20059;-84
2021/04/23 03:27:56;;;;;;;18.50;12.55;;;9.90;80.60;;;;;;5108877;28;20012;-83
2021/04/23 03:30:29;;;;;;;15.85;11.25;;;9.90;81.10;;;;;;5109305;28;20030;-84
2021/04/23 03:32:54;;;;;;;14.85;11.10;;;9.90;80.40;;;;;;5076267;28;20066;-83
2021/04/23 03:35:21;;;;;;;13.80;12.40;;;9.90;80.20;;;;;;5097908;28;20024;-82
2021/04/23 03:37:48;;;;;;;14.40;12.98;;;10.00;80.00;;;;;;5095214;28;20101;-82
2021/04/23 03:40:18;;;;;;;15.10;12.73;;;10.10;79.90;;;;;;5076747;28;20403;-82
2021/04/23 03:42:44;;;;;;;17.65;13.90;;;10.30;79.60;;;;;;5075501;28;20449;-82
2021/04/23 03:45:16;;;;;;;13.73;10.75;;;10.40;79.30;;;;;;5076891;28;20020;-83
2021/04/23 03:47:42;;;;;;;13.18;11.77;;;10.60;78.30;;;;;;5095102;28;20085;-82
2021/04/23 03:50:11;;;;;;;13.77;11.13;;;10.70;77.90;;;;;;5095573;28;20020;-83
2021/04/23 03:52:37;;;;;;;14.23;12.45;;;10.90;77.40;;;;;;5085172;28;20032;-82
2021/04/23 03:55:06;;;;;;;14.35;10.85;;;11.10;76.60;;;;;;5097492;28;20496;-82
2021/04/23 03:57:33;;;;;;;15.27;11.32;;;11.00;76.10;;;;;;5094668;28;20016;-83
2021/04/23 04:00:01;;;;;;;14.90;10.97;;;10.90;76.30;;;;;;5094755;28;20072;-83
2021/04/23 04:02:26;;;;;;;11.32;9.43;;;10.90;76.40;;;;;;5098556;28;20260;-84
2021/04/23 04:04:52;;;;;;;14.02;10.88;;;11.00;76.40;;;;;;5113488;28;20380;-82
2021/04/23 04:07:18;;;;;;;13.55;9.95;;;11.00;76.20;;;;;;5098994;28;20024;-83
2021/04/23 04:09:44;;;;;;;15.60;11.40;;;10.90;76.30;;;;;;5094158;28;20016;-83
2021/04/23 04:12:10;;;;;;;12.18;9.70;;;10.80;76.60;;;;;;5108411;28;20046;-81
2021/04/23 04:14:35;;;;;;;15.20;12.18;;;10.80;76.80;;;;;;5100989;28;20077;-83
2021/04/23 04:17:01;;;;;;;11.82;9.90;;;10.80;76.80;;;;;;5104171;28;20350;-83
2021/04/23 04:19:27;;;;;;;14.65;11.52;;;10.90;76.70;;;;;;5094763;28;20040;-85
2021/04/23 04:21:53;;;;;;;16.23;11.05;;;10.90;76.40;;;;;;5095866;28;20020;-85
2021/04/23 04:24:19;;;;;;;13.90;10.70;;;11.00;76.30;;;;;;5095036;28;20096;-82
2021/04/23 04:26:45;;;;;;;20.73;15.13;;;11.00;76.20;;;;;;5095064;28;20019;-84
2021/04/23 04:29:12;;;;;;;15.05;12.23;;;10.90;77.20;;;;;;5101202;28;20020;-81
2021/04/23 04:31:38;;;;;;;12.35;11.15;;;10.50;79.90;;;;;;5093662;28;20158;-81
2021/04/23 04:34:07;;;;;;;18.30;12.27;;;10.30;81.40;;;;;;5093903;28;20550;-84
2021/04/23 04:36:33;;;;;;;13.25;11.82;;;10.30;82.20;;;;;;5110488;28;20030;-80
2021/04/23 04:38:59;;;;;;;14.45;12.55;;;10.30;82.20;;;;;;5098313;28;20020;-83
2021/04/23 04:41:24;;;;;;;17.20;11.93;;;10.40;82.10;;;;;;5072949;28;20128;-84
2021/04/23 04:43:50;;;;;;;19.63;13.57;;;10.50;81.80;;;;;;5093977;28;20024;-83
2021/04/23 04:46:16;;;;;;;14.68;12.52;;;10.60;81.70;;;;;;5095075;28;20024;-82
2021/04/23 04:48:42;;;;;;;15.27;13.77;;;10.80;80.70;;;;;;5096789;28;20035;-83
2021/04/23 04:51:09;;;;;;;14.68;11.82;;;10.70;80.20;;;;;;5097453;28;20035;-84
2021/04/23 04:53:35;;;;;;;16.25;13.80;;;10.80;80.70;;;;;;5094774;28;20053;-84
2021/04/23 04:56:04;;;;;;;14.77;12.88;;;10.90;80.10;;;;;;5096866;28;20028;-85
2021/04/23 04:58:34;;;;;;;14.90;12.10;;;11.10;79.70;;;;;;5097086;28;20016;-85
2021/04/23 05:01:03;;;;;;;14.40;12.60;;;11.20;78.50;;;;;;5095827;28;20062;-84
2021/04/23 05:03:28;;;;;;;16.67;12.60;;;11.30;78.00;;;;;;5076875;28;20068;-84
2021/04/23 05:05:55;;;;;;;15.50;11.55;;;11.50;77.90;;;;;;5077588;28;20099;-85
2021/04/23 05:08:20;;;;;;;12.77;11.50;;;11.70;76.60;;;;;;5094381;28;20012;-85
2021/04/23 05:10:46;;;;;;;13.85;11.80;;;11.80;75.80;;;;;;5097401;28;20036;-83
2021/04/23 05:13:12;;;;;;;13.45;11.88;;;11.70;75.40;;;;;;5096804;28;20024;-84
2021/04/23 05:15:39;;;;;;;13.00;9.80;;;11.90;75.30;;;;;;5076708;28;20101;-84
2021/04/23 05:18:05;;;;;;;12.07;10.30;;;12.00;74.70;;;;;;5096643;28;20495;-84
2021/04/23 05:20:31;;;;;;;11.50;9.80;;;12.30;73.80;;;;;;5094166;28;20064;-83
2021/04/23 05:22:57;;;;;;;14.40;9.93;;;12.50;72.80;;;;;;5094250;28;20016;-83
2021/04/23 05:25:25;;;;;;;13.52;11.63;;;12.60;71.80;;;;;;5094272;28;20027;-84
2021/04/23 05:27:52;;;;;;;11.95;10.85;;;12.40;72.30;;;;;;5077064;28;20023;-84
2021/04/23 05:30:21;;;;;;;12.50;10.23;;;12.30;72.40;;;;;;5075456;28;20514;-83
2021/04/23 05:32:47;;;;;;;13.90;11.27;;;12.30;72.50;;;;;;5086872;28;20037;-86
2021/04/23 05:35:15;;;;;;;13.05;10.30;;;12.40;73.30;;;;;;5090143;28;20020;-84
2021/04/23 05:37:42;;;;;;;12.40;10.07;;;12.60;72.10;;;;;;5093852;28;20118;-85
2021/04/23 05:40:10;;;;;;;10.73;8.07;;;12.80;71.60;;;;;;5103566;28;20051;-88
2021/04/23 05:42:37;;;;;;;11.57;8.85;;;13.40;69.90;;;;;;5088330;28;20031;-85
2021/04/23 05:45:05;;;;;;;10.13;8.57;;;13.90;68.20;;;;;;5099373;28;20469;-85
2021/04/23 05:47:31;;;;;;;14.45;9.50;;;14.60;65.60;;;;;;5081896;28;20035;-84
2021/04/23 05:49:57;;;;;;;12.02;9.25;;;16.10;63.60;;;;;;5096135;28;20186;-87
2021/04/23 05:52:22;;;;;;;11.65;9.27;;;16.60;59.80;;;;;;5107060;28;20020;-84
2021/04/23 05:54:48;;;;;;;8.73;7.90;;;15.80;59.50;;;;;;5104195;28;20058;-86
2021/04/23 05:57:14;;;;;;;13.05;10.15;;;15.10;60.60;;;;;;5107941;28;20450;-86
2021/04/23 05:59:40;;;;;;;13.75;9.80;;;14.50;63.00;;;;;;5088583;28;20036;-83
2021/04/23 06:02:06;;;;;;;13.23;9.82;;;14.00;64.40;;;;;;5092967;28;20024;-87
2021/04/23 06:04:32;;;;;;;12.15;8.80;;;13.70;65.70;;;;;;5088510;28;20027;-84
2021/04/23 06:07:00;;;;;;;9.70;8.70;;;13.40;66.80;;;;;;5103434;28;20069;-85
2021/04/23 06:09:26;;;;;;;11.95;9.15;;;12.90;70.90;;;;;;5102816;28;20016;-82
2021/04/23 06:11:52;;;;;;;14.50;10.95;;;11.90;75.60;;;;;;5091313;28;20400;-86
2021/04/23 06:14:22;;;;;;;13.20;9.70;;;11.30;80.20;;;;;;5102508;28;20008;-84
2021/04/23 06:17:04;;;;;;;13.60;9.93;;;10.80;83.20;;;;;;5087429;28;20026;-85
2021/04/23 06:19:33;;;;;;;11.75;10.52;;;10.40;85.50;;;;;;5089534;28;20110;-83
2021/04/23 06:22:01;;;;;;;13.68;9.23;;;10.10;87.50;;;;;;5082706;28;20024;-87
2021/04/23 06:24:26;;;;;;;14.77;11.20;;;10.10;88.30;;;;;;5099055;28;20039;-84
2021/04/23 06:26:53;;;;;;;10.93;9.60;;;10.10;88.90;;;;;;5102988;28;20020;-85
2021/04/23 06:29:19;;;;;;;13.43;10.38;;;10.00;89.70;;;;;;5108854;28;20413;-84
2021/04/23 06:31:45;;;;;;;11.85;10.60;;;10.00;90.10;;;;;;5101884;28;20013;-84
2021/04/23 06:34:11;;;;;;;11.00;9.90;;;10.10;90.10;;;;;;5105585;28;20108;-84
2021/04/23 06:36:39;;;;;;;11.63;10.52;;;10.10;90.10;;;;;;5097667;28;20394;-84
2021/04/23 06:39:15;;;;;;;14.10;10.63;;;10.20;90.20;;;;;;5108494;28;20421;-83
2021/04/23 06:41:42;;;;;;;16.88;11.77;;;10.40;89.80;;;;;;5101013;28;20012;-88
2021/04/23 06:44:14;;;;;;;9.55;8.38;;;10.40;89.80;;;;;;5103982;28;20044;-87
2021/04/23 06:46:40;;;;;;;9.35;8.52;;;10.70;88.90;;;;;;5099924;28;20477;-87
2021/04/23 06:49:06;;;;;;;12.20;9.13;;;10.80;88.10;;;;;;5112484;28;20020;-85
2021/04/23 06:51:32;;;;;;;10.82;9.77;;;11.00;87.20;;;;;;5107949;28;20019;-86
2021/04/23 06:54:01;;;;;;;12.73;10.05;;;11.10;87.30;;;;;;5097300;28;20422;-87
2021/04/23 06:56:27;;;;;;;11.30;10.00;;;11.20;87.20;;;;;;5085888;28;20030;-86
2021/04/23 06:58:54;;;;;;;12.93;9.65;;;11.50;86.50;;;;;;5111761;28;20024;-86
2021/04/23 07:01:20;;;;;;;14.45;10.98;;;11.70;84.70;;;;;;5124065;28;20102;-86
2021/04/23 07:03:46;;;;;;;17.05;11.77;;;11.90;84.10;;;;;;5084635;28;20190;-86
2021/04/23 07:06:12;;;;;;;16.60;12.68;;;12.20;84.00;;;;;;5115172;28;20019;-86
2021/04/23 07:08:38;;;;;;;18.35;13.50;;;12.70;83.00;;;;;;5110806;28;20085;-87
2021/04/23 07:11:07;;;;;;;14.40;12.95;;;12.90;80.60;;;;;;5105942;28;20024;-85
2021/04/23 07:13:33;;;;;;;13.25;11.45;;;13.20;79.00;;;;;;5095841;28;20455;-87
2021/04/23 07:15:59;;;;;;;17.23;13.68;;;13.70;78.40;;;;;;5108398;28;20111;-86
2021/04/23 07:18:26;;;;;;;14.90;13.32;;;14.40;76.80;;;;;;5108023;28;20017;-87
2021/04/23 07:20:54;;;;;;;18.50;11.68;;;15.00;75.20;;;;;;5082807;28;20073;-85
2021/04/23 07:23:20;;;;;;;13.93;11.85;;;15.60;71.70;;;;;;5110973;28;20073;-86
2021/04/23 07:25:46;;;;;;;13.55;11.88;;;16.50;69.10;;;;;;5103352;28;20031;-86
2021/04/23 07:28:12;;;;;;;13.18;11.85;;;17.30;66.30;;;;;;5106119;28;20020;-86
2021/04/23 07:30:39;;;;;;;11.68;10.45;;;18.20;64.30;;;;;;5096944;28;20418;-85
2021/04/23 07:33:09;;;;;;;12.32;9.82;;;19.30;59.80;;;;;;5099960;28;20023;-84
2021/04/23 07:35:35;;;;;;;10.40;8.55;;;20.40;56.40;;;;;;5083550;28;20085;-88
2021/04/23 07:38:02;;;;;;;11.25;10.07;;;21.00;53.60;;;;;;5096878;28;20032;-86
2021/04/23 07:40:28;;;;;;;10.40;9.35;;;21.20;52.30;;;;;;5096660;28;20028;-85
2021/04/23 07:42:55;;;;;;;15.65;12.30;;;20.70;52.30;;;;;;5077811;28;20024;-85
2021/04/23 07:45:21;;;;;;;11.52;10.13;;;20.20;53.60;;;;;;5103515;28;20059;-84
2021/04/23 07:47:48;;;;;;;9.70;8.65;;;19.70;54.20;;;;;;5105438;28;20043;-86
2021/04/23 07:50:17;;;;;;;12.77;10.32;;;20.00;53.70;;;;;;5088037;28;20032;-87
2021/04/23 07:52:43;;;;;;;10.25;9.25;;;20.20;53.50;;;;;;5097890;28;20505;-85
2021/04/23 07:55:10;;;;;;;10.05;9.05;;;20.20;52.90;;;;;;5097130;28;20491;-86
2021/04/23 07:57:36;;;;;;;;;;;19.80;52.60;;;;;;5096338;28;20533;-87
2021/04/23 08:00:07;;;;;;;11.65;10.45;;;18.80;54.50;;;;;;5097945;28;19912;-86
2021/04/23 08:02:33;;;;;;;10.00;9.00;;;17.70;56.70;;;;;;5114372;28;20018;-87
2021/04/23 08:04:59;;;;;;;13.55;10.02;;;17.00;59.60;;;;;;5115301;28;20024;-87
2021/04/23 08:07:25;;;;;;;16.83;8.77;;;17.60;60.20;;;;;;5082255;28;20024;-87
2021/04/23 08:10:00;;;;;;;8.90;7.97;;;18.90;56.60;;;;;;5108081;28;20028;-87
2021/04/23 08:12:26;;;;;;;9.52;8.57;;;19.10;53.40;;;;;;5122623;28;20496;-86
2021/04/23 08:14:52;;;;;;;11.45;8.85;;;18.50;54.60;;;;;;5109811;28;20016;-86
2021/04/23 08:17:17;;;;;;;14.35;9.60;;;18.00;56.10;;;;;;5103174;28;20389;-86
2021/04/23 08:19:43;;;;;;;11.60;9.35;;;17.60;58.30;;;;;;5077508;28;20047;-88
2021/04/23 08:22:09;;;;;;;11.93;9.90;;;17.50;61.00;;;;;;5096723;28;20454;-85
2021/04/23 08:24:35;;;;;;;12.68;11.00;;;17.80;60.60;;;;;;5100153;28;20080;-89
2021/04/23 08:27:01;;;;;;;7.80;6.85;;;18.80;58.80;;;;;;5089058;28;20031;-86
2021/04/23 08:29:27;;;;;;;9.20;8.00;;;19.80;53.60;;;;;;5106556;28;20034;-85
2021/04/23 08:31:53;;;;;;;9.95;7.78;;;21.20;51.30;;;;;;5097025;28;20020;-87
2021/04/23 08:34:18;;;;;;;8.68;7.32;;;23.20;48.30;;;;;;5095299;28;20378;-87
2021/04/23 08:36:44;;;;;;;13.85;6.72;;;25.20;43.60;;;;;;5077144;28;20021;-86
2021/04/23 08:39:11;;;;;;;7.78;6.05;;;26.40;40.40;;;;;;5078558;28;20430;-85
2021/04/23 08:41:39;;;;;;;6.63;5.20;;;26.70;36.80;;;;;;5095792;28;20024;-86
2021/04/23 08:44:06;;;;;;;8.93;6.10;;;25.50;36.30;;;;;;5095997;28;20024;-85
2021/04/23 08:46:37;;;;;;;9.95;6.40;;;24.80;38.10;;;;;;5078415;28;20020;-86
2021/04/23 08:49:05;;;;;;;8.50;6.15;;;25.40;37.50;;;;;;5077456;28;20122;-85
2021/04/23 08:51:32;;;;;;;7.68;6.07;;;26.20;37.50;;;;;;5097562;28;20028;-84
2021/04/23 08:53:58;;;;;;;;;;;26.20;36.30;;;;;;5108070;28;20028;-83
2021/04/23 08:56:25;;;;;;;7.78;5.35;;;25.00;37.00;;;;;;5067308;28;19911;-83
2021/04/23 08:58:51;;;;;;;9.57;5.18;;;23.60;38.30;;;;;;5095922;28;20063;-86
2021/04/23 09:01:18;;;;;;;6.88;5.25;;;22.50;39.50;;;;;;5089619;28;20035;-86
2021/04/23 09:03:44;;;;;;;7.38;6.10;;;21.10;42.20;;;;;;5114836;28;20020;-84
2021/04/23 09:06:14;;;;;;;6.63;5.15;;;20.40;44.50;;;;;;5094533;28;20035;-85
2021/04/23 09:09:01;;;;;;;8.60;5.63;;;20.40;44.80;;;;;;5113750;28;20051;-85
2021/04/23 09:11:33;;;;;;;7.22;6.10;;;20.20;45.30;;;;;;5077846;28;20032;-85
2021/04/23 09:14:06;;;;;;;6.07;5.47;;;21.20;45.50;;;;;;5094813;28;20028;-84
2021/04/23 09:16:45;;;;;;;9.02;5.00;;;22.20;42.40;;;;;;5116480;28;20027;-86
2021/04/23 09:19:31;;;;;;;8.65;5.15;;;22.30;41.20;;;;;;5080899;28;20038;-85
2021/04/23 09:22:07;;;;;;;8.48;5.03;;;22.00;41.50;;;;;;5095199;28;20036;-84
2021/04/23 09:24:37;;;;;;;7.93;5.32;;;22.40;42.80;;;;;;5075512;28;20012;-88
2021/04/23 09:27:10;;;;;;;7.47;4.97;;;21.90;41.10;;;;;;5094097;28;20020;-85
2021/04/23 09:29:37;;;;;;;7.55;4.70;;;20.80;41.60;;;;;;5099158;28;20028;-85
2021/04/23 09:32:11;;;;;;;6.43;5.30;;;19.60;43.90;;;;;;5100599;28;20027;-86
2021/04/23 09:34:58;;;;;;;17.25;6.55;;;19.00;45.10;;;;;;5114778;28;20038;-86
2021/04/23 09:37:27;;;;;;;15.57;6.00;;;17.20;57.50;;;;;;5062069;28;20039;-81
2021/04/23 09:40:05;;;;;;;12.55;8.38;;;13.10;72.40;;;;;;5092485;28;20032;-83
2021/04/23 09:42:46;;;;;;;9.15;6.57;;;11.90;90.50;;;;;;5074342;28;20161;-81
2021/04/23 09:45:13;;;;;;;9.00;7.07;;;11.80;91.10;;;;;;5092976;28;20012;-81
2021/04/23 09:47:40;;;;;;;12.57;6.97;;;11.90;92.40;;;;;;5075258;28;20028;-82
2021/04/23 09:50:07;;;;;;;9.50;7.63;;;12.00;93.20;;;;;;5074400;28;20024;-83
2021/04/23 09:52:43;;;;;;;10.87;8.50;;;12.40;93.90;;;;;;5107763;28;20019;-83
2021/04/23 09:55:11;;;;;;;10.15;7.35;;;13.30;94.50;;;;;;5094714;28;20013;-83
2021/04/23 09:57:37;;;;;;;7.00;5.72;;;14.90;93.80;;;;;;5095465;28;20024;-81
2021/04/23 10:00:08;;;;;;;8.95;6.10;;;16.20;90.30;;;;;;5093156;28;20115;-84
2021/04/23 10:02:35;;;;;;;8.57;4.85;;;16.30;82.70;;;;;;5092900;28;20018;-84
2021/04/23 10:05:10;;;;;;;6.47;4.10;;;17.20;85.40;;;;;;5092959;28;20027;-84
2021/04/23 10:07:47;;;;;;;4.80;3.08;;;17.70;75.10;;;;;;5078590;28;20020;-86
2021/04/23 10:10:13;;;;;;;4.35;2.88;;;17.60;71.20;;;;;;5101904;28;20024;-85
2021/04/23 10:12:44;;;;;;;4.75;3.10;;;16.30;69.50;;;;;;5107881;28;20081;-84
2021/04/23 10:15:17;;;;;;;6.88;3.10;;;15.20;72.30;;;;;;5099452;28;20020;-85
2021/04/23 10:17:46;;;;;;;10.32;6.10;;;14.60;70.00;;;;;;5082576;28;20046;-86
2021/04/23 10:20:15;;;;;;;3.50;3.20;;;14.30;76.10;;;;;;5107273;28;20048;-87
2021/04/23 10:22:41;;;;;;;5.07;3.58;;;14.20;73.20;;;;;;5115288;28;20744;-82
2021/04/23 10:25:09;;;;;;;5.43;3.13;;;14.00;75.70;;;;;;5083645;28;20020;-84
2021/04/23 10:27:42;;;;;;;;;;;13.80;76.50;;;;;;5101450;28;20019;-90
2021/04/23 10:30:16;;;;;;;4.85;3.50;;;13.80;77.50;;;;;;5094127;28;20428;-87
2021/04/23 10:32:50;;;;;;;4.85;3.90;;;14.20;77.00;;;;;;5093213;28;20028;-84
2021/04/23 10:35:16;;;;;;;4.38;3.22;;;14.40;75.20;;;;;;5078187;28;20425;-86
2021/04/23 10:37:44;;;;;;;5.65;2.78;;;14.20;71.90;;;;;;5114546;28;20016;-87
2021/04/23 10:40:13;;;;;;;4.45;2.50;;;13.70;72.90;;;;;;5079370;28;20039;-85
2021/04/23 10:42:45;;;;;;;2.13;1.85;;;13.50;71.30;;;;;;5077828;28;20107;-87
2021/04/23 10:45:34;;;;;;;3.75;2.53;;;13.60;69.40;;;;;;5078577;28;20067;-87
2021/04/23 10:48:04;;;;;;;3.60;2.30;;;14.00;68.60;;;;;;5107335;28;20019;-85
2021/04/23 10:50:42;;;;;;;3.60;2.60;;;14.20;69.80;;;;;;5115083;28;20074;-86
2021/04/23 10:53:26;;;;;;;3.13;2.40;;;14.60;69.50;;;;;;5112740;28;20027;-86
2021/04/23 10:55:58;;;;;;;4.30;3.30;;;14.80;64.70;;;;;;5116824;28;20028;-88
2021/04/23 10:58:30;;;;;;;4.03;3.00;;;14.90;67.40;;;;;;5097588;28;20098;-85
2021/04/23 11:00:57;;;;;;;4.57;2.42;;;15.00;65.80;;;;;;5111832;28;20350;-86
2021/04/23 11:03:34;;;;;;;9.45;4.07;;;15.00;65.80;;;;;;5111701;28;20019;-86
2021/04/23 11:06:12;;;;;;;5.32;4.13;;;14.90;66.40;;;;;;5123763;28;20027;-86
2021/04/23 11:08:39;;;;;;;6.32;2.75;;;14.90;68.10;;;;;;5112565;28;20028;-88
2021/04/23 11:11:13;;;;;;;4.20;3.03;;;14.60;68.10;;;;;;5098680;28;20008;-84
2021/04/23 11:13:42;;;;;;;3.47;2.70;;;13.40;76.00;;;;;;5080125;28;20115;-85
2021/04/23 11:16:23;;;;;;;3.28;1.88;;;12.10;82.90;;;;;;5097527;28;20027;-87
2021/04/23 11:19:20;;;;;;;12.88;3.60;;;11.20;86.60;;;;;;5097228;28;20032;-88
2021/04/23 11:21:48;;;;;;;5.85;3.40;;;10.50;88.90;;;;;;5097896;28;20047;-85
2021/04/23 11:24:20;;;;;;;4.82;2.75;;;10.30;90.80;;;;;;5098109;28;20016;-86
2021/04/23 11:26:56;;;;;;;6.57;4.10;;;10.10;91.10;;;;;;5097847;28;20024;-87
2021/04/23 11:29:28;;;;;;;6.18;3.72;;;10.00;91.60;;;;;;5097374;28;20035;-87
2021/04/23 11:32:17;;;;;;;4.88;3.78;;;10.00;92.30;;;;;;5101541;28;20028;-86
2021/04/23 11:34:50;;;;;;;5.10;3.35;;;10.00;91.30;;;;;;5101930;28;20025;-86
2021/04/23 11:37:21;;;;;;;3.72;3.30;;;10.10;92.10;;;;;;5117595;28;20442;-86
2021/04/23 11:39:56;;;;;;;3.95;3.30;;;10.50;91.50;;;;;;5104104;28;20445;-87
2021/04/23 11:42:45;;;;;;;5.75;3.65;;;11.00;91.90;;;;;;5101180;28;20020;-84
2021/04/23 11:45:14;;;;;;;6.32;4.40;;;11.70;90.10;;;;;;5120051;28;20384;-85
2021/04/23 11:47:44;;;;;;;6.63;3.22;;;12.60;89.00;;;;;;5111981;28;20093;-86
2021/04/23 11:50:31;;;;;;;4.53;3.45;;;13.00;85.90;;;;;;5080054;28;20020;-85
2021/04/23 11:53:04;;;;;;;;;;;13.20;81.70;;;;;;5095032;28;20023;-87
2021/04/23 11:55:33;;;;;;;5.35;3.38;;;13.20;82.50;;;;;;5079350;28;19904;-87
2021/04/23 11:58:14;;;;;;;4.90;3.83;;;13.20;76.60;;;;;;5097033;28;20456;-85
2021/04/23 12:00:43;;;;;;;5.82;4.45;;;13.50;76.60;;;;;;5096147;28;20039;-85
2021/04/23 12:03:17;;;;;;;9.48;4.15;;;13.70;77.20;;;;;;5097444;28;20020;-87
2021/04/23 12:05:47;;;;;;;6.13;4.85;;;13.90;77.10;;;;;;5109919;28;20027;-87
2021/04/23 12:08:14;;;;;;;6.53;3.97;;;14.10;79.20;;;;;;5104490;28;20042;-86
2021/04/23 12:10:43;;;;;;;9.43;4.03;;;14.00;72.70;;;;;;5084059;28;20130;-87
2021/04/23 12:13:16;;;;;;;6.22;4.00;;;14.20;71.80;;;;;;5109006;28;20024;-85
2021/04/23 12:15:45;;;;;;;4.00;3.53;;;14.50;72.30;;;;;;5091892;28;20030;-87
2021/04/23 12:18:12;;;;;;;4.65;3.75;;;14.70;70.00;;;;;;5065515;28;20020;-88
2021/04/23 12:20:49;;;;;;;8.20;4.60;;;14.80;71.10;;;;;;5097208;28;20135;-87
2021/04/23 12:23:18;;;;;;;9.52;3.70;;;14.90;74.50;;;;;;5085137;28;20393;-85
2021/04/23 12:25:49;;;;;;;9.80;4.63;;;15.10;73.50;;;;;;5082571;28;20024;-88
2021/04/23 12:28:22;;;;;;;5.40;3.53;;;15.20;70.50;;;;;;5086207;28;20016;-89
2021/04/23 12:30:52;;;;;;;5.32;4.10;;;15.10;69.40;;;;;;5107862;28;20052;-88
2021/04/23 12:33:18;;;;;;;4.32;3.75;;;15.00;70.70;;;;;;5125706;28;20017;-87
2021/04/23 12:35:47;;;;;;;5.65;4.18;;;15.00;71.80;;;;;;5103452;28;20448;-87
2021/04/23 12:38:15;;;;;;;8.35;5.15;;;15.00;71.50;;;;;;5104069;28;20107;-86
2021/04/23 12:40:44;;;;;;;4.97;3.72;;;15.00;74.40;;;;;;5103497;28;20095;-88
2021/04/23 12:43:20;;;;;;;4.60;4.05;;;15.00;71.50;;;;;;5083318;28;20381;-87
2021/04/23 12:45:55;;;;;;;10.52;4.90;;;15.00;70.40;;;;;;5093291;28;20024;-86
2021/04/23 12:48:23;;;;;;;7.55;4.68;;;15.10;70.80;;;;;;5113298;28;20024;-87
2021/04/23 12:50:52;;;;;;;6.50;3.85;;;15.20;71.60;;;;;;5116587;28;20023;-88
2021/04/23 12:53:23;;;;;;;8.82;4.60;;;15.10;68.70;;;;;;5120316;28;20023;-88